Canaan, IN (47224)

9:54 AM EST on December 13, 2017 (GMT -0500)
Vevay | | Change Station
Active Advisory: Wind Advisory

Elev 800 ft 38.79 °N, 85.03 °W | Updated 4 minutes ago

Overcast
Overcast
24.0 °F
Feels Like 14 °F
N
10.0
Wind Variable Wind from SSW
Gusts 10.0 mph

Today
High -- | Low -- °F
--% Chance of Precip.
Yesterday
High -- | Low -- °F
Precip. -- in
Pressure 29.86 in
Visibility 10.0 miles
Clouds Mostly Cloudy 7500 ft
Overcast 12000 ft
Windchill 14 °F
Dew Point 11 °F
Humidity 58%
Rainfall 0.00 in
Snow Depth Not available.
7:51 AM 5:19 PM
Waning Crescent, 19% visible
METAR KCVG 131452Z 18011KT 10SM BKN075 OVC120 M04/M11 A2983 RMK AO2 SLP111 T10391111 58028
Pressure 29.86 in
Visibility 10.0 miles
Clouds Mostly Cloudy 7500 ft
Overcast 12000 ft
Windchill 14 °F
Dew Point 11 °F
Humidity 58%
Rainfall 0.00 in
Snow Depth Not available.
7:51 AM 5:19 PM
Waning Crescent, 19% visible
METAR KCVG 131452Z 18011KT 10SM BKN075 OVC120 M04/M11 A2983 RMK AO2 SLP111 T10391111 58028

Get Your Daily Forecast Email!

Thanks for signing up!

Be on the lookout for a verification email in your inbox.

You'll start receiving severe weather alerts in your inbox..

×

10-Day Weather Forecast

Almanac

Astronomy

Dec. 13, 2017 Rise Set
Actual Time
Civil Twilight
Nautical Twilight
Astronomical Twilight
Moon
Length of Visible Light
Length of Day
Tomorrow will be .
, % of the Moon is Illuminated

Today's Extremes

State Highs State Lows

Community

WunderPhotos

Category 6

Welcome to Category 6. This is the collective home for Weather Underground's featured writeups by Dr. Jeff Masters (right), Bob Henson (left), Chris Burt, and other regular contributors.

Nearby

Air Quality

  Air Quality AQ Index Pollutant
Not available.

Snow Depth

Station Depth Elevation

Earthquake Activity

City Distance Mag. Time & Date
Minimum magnitude displayed is 2.5.

Coastal Water Temperatures

Place Temperature

Stations

Nearby Weather Stations

Station Location Temp. Windchill Dew Point Humidity Wind Precip. Elev Updated Type
                   

Watches & Warnings

Wind Advisory
Issued: 2:50 AM CST Dec. 13, 2017 – National Weather Service

... Wind Advisory in effect from noon EST /11 am CST/ today to
7 PM EST /6 PM CST/ this evening...

The National Weather Service in Louisville has issued a Wind
Advisory, which is in effect from noon EST /11 am CST/ today to
7 PM EST /6 PM CST/ this evening.

* Timing... the strongest wind gusts are expected between 1pm and
5pm EST... noon and 4pm CST.

* Winds... gusts to 40 mph out of the south are anticipated.

* Impacts... winds this strong can make driving difficult,
especially for high profile vehicles on east west roads.

Precautionary/preparedness actions...

A Wind Advisory means that wind gusts of over 40 mph are
expected. Winds this strong can make driving difficult...
especially for high profile vehicles. Use extra caution. Secure or
bring inside lightweight outdoor objects.



13